Time;durP1;ratioP1;P1;durP2;ratioP2;P2;SDS_P1;SDS_P2;PMS_P1;PMS_P2;Temp;Humidity;BMP_temperature;BMP_pressure;BME280_temperature;BME280_humidity;BME280_pressure;Samples;Min_cycle;Max_cycle;Signal;HPM_P1;HPM_P2
2022/09/18 00:00:14;;;;;;;0.10;0.10;;;9.70;99.90;;;;;;4973574;28;20205;-76
2022/09/18 00:02:42;;;;;;;0.05;0.05;;;9.70;99.90;;;;;;4981287;28;20208;-74
2022/09/18 00:05:10;;;;;;;0.10;0.10;;;9.70;99.90;;;;;;4973073;28;20217;-74
2022/09/18 00:07:38;;;;;;;0.10;0.10;;;9.70;99.90;;;;;;4976047;28;20680;-75
2022/09/18 00:10:06;;;;;;;0.10;0.10;;;9.60;99.90;;;;;;4967416;28;20668;-75
2022/09/18 00:12:34;;;;;;;0.10;0.10;;;9.70;99.90;;;;;;4978149;28;20201;-75
2022/09/18 00:15:02;;;;;;;0.10;0.10;;;9.70;99.90;;;;;;4972766;28;20652;-75
2022/09/18 00:17:31;;;;;;;0.10;0.10;;;9.70;99.90;;;;;;4973966;28;20255;-76
2022/09/18 00:19:59;;;;;;;0.10;0.10;;;9.70;99.90;;;;;;4969970;28;20208;-75
2022/09/18 00:22:26;;;;;;;0.10;0.10;;;9.70;99.90;;;;;;4972433;28;20260;-75
2022/09/18 00:24:54;;;;;;;0.03;0.03;;;9.80;99.90;;;;;;4967075;28;20224;-76
2022/09/18 00:27:22;;;;;;;0.10;0.10;;;9.70;99.90;;;;;;4971252;28;20611;-76
2022/09/18 00:29:50;;;;;;;0.00;0.00;;;9.80;99.90;;;;;;4970556;28;20232;-76
2022/09/18 00:32:17;;;;;;;0.00;0.00;;;9.80;99.90;;;;;;4981459;28;20210;-76
2022/09/18 00:34:46;;;;;;;0.10;0.10;;;9.80;99.90;;;;;;4953243;28;20319;-76
2022/09/18 00:37:14;;;;;;;0.10;0.10;;;9.80;99.90;;;;;;4970426;28;20201;-76
2022/09/18 00:39:42;;;;;;;0.00;0.00;;;9.80;99.90;;;;;;4956323;28;20256;-76
2022/09/18 00:42:12;;;;;;;0.10;0.10;;;9.80;99.90;;;;;;4991312;28;20212;-75
2022/09/18 00:44:41;;;;;;;0.10;0.10;;;9.80;99.90;;;;;;4974442;28;20227;-75
2022/09/18 00:47:22;;;;;;;0.10;0.10;;;9.80;99.90;;;;;;4970302;28;20205;-76
2022/09/18 00:49:56;;;;;;;0.10;0.10;;;9.80;99.90;;;;;;4972217;28;20201;-76
2022/09/18 00:52:29;;;;;;;0.10;0.10;;;9.80;99.90;;;;;;4982204;28;20625;-76
2022/09/18 00:55:02;;;;;;;0.10;0.10;;;9.80;99.90;;;;;;4974379;28;20230;-76
2022/09/18 00:57:32;;;;;;;0.10;0.10;;;9.80;99.90;;;;;;4971024;28;20198;-75
2022/09/18 01:00:02;;;;;;;0.10;0.10;;;9.90;99.90;;;;;;4962555;28;20267;-75
2022/09/18 01:02:29;;;;;;;0.10;0.10;;;9.90;99.90;;;;;;4986748;28;20737;-75
2022/09/18 01:04:59;;;;;;;0.10;0.10;;;9.80;99.90;;;;;;4978030;28;20225;-76
2022/09/18 01:07:38;;;;;;;0.10;0.10;;;9.80;99.90;;;;;;4976316;28;20545;-76
2022/09/18 01:10:18;;;;;;;0.10;0.10;;;9.90;99.90;;;;;;4975465;28;20561;-76
2022/09/18 01:12:53;;;;;;;0.10;0.10;;;9.80;99.90;;;;;;4975609;28;20200;-76
2022/09/18 01:15:28;;;;;;;0.10;0.10;;;9.90;99.90;;;;;;4986854;28;20458;-76
2022/09/18 01:18:05;;;;;;;0.10;0.10;;;9.80;99.90;;;;;;4975581;28;20686;-76
2022/09/18 01:20:56;;;;;;;0.03;0.03;;;9.80;99.90;;;;;;4975050;28;20623;-76
2022/09/18 01:23:50;;;;;;;0.00;0.00;;;9.90;99.90;;;;;;4996030;28;20193;-77
2022/09/18 01:26:33;;;;;;;0.10;0.10;;;9.90;99.90;;;;;;4962680;28;20236;-77
2022/09/18 01:29:08;;;;;;;0.10;0.10;;;9.90;99.90;;;;;;4974338;28;20201;-77
2022/09/18 01:31:43;;;;;;;0.10;0.10;;;9.90;99.90;;;;;;4983981;28;20204;-77
2022/09/18 01:34:17;;;;;;;0.05;0.05;;;9.90;99.90;;;;;;4969098;28;20618;-77
2022/09/18 01:36:52;;;;;;;0.10;0.10;;;9.90;99.90;;;;;;4994047;23;20308;-76
2022/09/18 01:39:29;;;;;;;0.10;0.10;;;9.90;99.90;;;;;;4962782;28;20249;-76
2022/09/18 01:41:58;;;;;;;0.05;0.05;;;9.90;99.90;;;;;;4972434;28;20289;-75
2022/09/18 01:44:31;;;;;;;0.10;0.10;;;9.90;99.90;;;;;;4974444;28;20580;-75
2022/09/18 01:47:05;;;;;;;0.08;0.08;;;9.90;99.90;;;;;;4932670;29;20237;-76
2022/09/18 01:49:39;;;;;;;0.10;0.10;;;9.90;99.90;;;;;;4923643;29;20197;-75
2022/09/18 01:52:11;;;;;;;0.00;0.00;;;9.90;99.90;;;;;;4944595;29;20194;-75
2022/09/18 01:54:45;;;;;;;0.00;0.00;;;9.90;99.90;;;;;;4954520;29;20205;-75
2022/09/18 01:57:19;;;;;;;0.10;0.10;;;9.90;99.90;;;;;;4946849;29;20615;-75
2022/09/18 01:59:54;;;;;;;0.03;0.03;;;9.90;99.90;;;;;;4962862;28;20235;-74
2022/09/18 02:02:37;;;;;;;0.10;0.10;;;10.00;99.90;;;;;;4926876;29;20213;-75
2022/09/18 02:05:09;;;;;;;0.10;0.10;;;10.00;99.90;;;;;;4930213;28;20237;-74
2022/09/18 02:07:43;;;;;;;0.10;0.10;;;10.00;99.90;;;;;;4939420;29;20228;-74
2022/09/18 02:10:13;;;;;;;0.03;0.03;;;9.90;99.90;;;;;;4938496;29;20204;-75
2022/09/18 02:12:43;;;;;;;0.10;0.10;;;9.90;99.90;;;;;;4938690;29;20677;-75
2022/09/18 02:15:15;;;;;;;0.03;0.03;;;9.90;99.90;;;;;;4938761;29;20218;-75
2022/09/18 02:17:56;;;;;;;0.10;0.10;;;9.90;99.90;;;;;;4948240;28;20213;-75
2022/09/18 02:20:36;;;;;;;0.00;0.00;;;9.90;99.90;;;;;;4950228;29;20194;-75
2022/09/18 02:23:06;;;;;;;0.08;0.08;;;9.90;99.90;;;;;;4954111;29;20224;-75
2022/09/18 02:25:38;;;;;;;0.10;0.10;;;10.00;99.90;;;;;;4953645;29;20265;-75
2022/09/18 02:28:08;;;;;;;0.10;0.10;;;10.00;99.90;;;;;;4951521;28;20229;-76
2022/09/18 02:30:39;;;;;;;0.10;0.10;;;9.90;99.90;;;;;;4953591;29;20236;-75
2022/09/18 02:33:23;;;;;;;0.10;0.10;;;9.90;99.90;;;;;;4919016;29;20210;-76
2022/09/18 02:36:16;;;;;;;0.00;0.00;;;9.90;99.90;;;;;;4937937;29;20716;-76
2022/09/18 02:38:53;;;;;;;0.00;0.00;;;9.90;99.90;;;;;;4941312;29;20222;-76
2022/09/18 02:41:33;;;;;;;0.00;0.00;;;9.90;99.90;;;;;;4952585;28;20217;-75
2022/09/18 02:44:06;;;;;;;0.10;0.10;;;9.90;99.90;;;;;;4934613;28;20202;-75
2022/09/18 02:46:51;;;;;;;0.10;0.10;;;9.90;99.90;;;;;;4934485;29;20232;-75
2022/09/18 02:49:33;;;;;;;0.10;0.10;;;9.80;99.90;;;;;;4918817;29;20205;-75
2022/09/18 02:52:06;;;;;;;0.10;0.10;;;9.80;99.90;;;;;;4938832;29;20209;-75
2022/09/18 02:54:43;;;;;;;0.00;0.00;;;9.90;99.90;;;;;;4937629;29;20198;-74
2022/09/18 02:57:16;;;;;;;0.00;0.00;;;9.80;99.90;;;;;;4947727;29;20246;-75
2022/09/18 02:59:49;;;;;;;0.10;0.10;;;9.80;99.90;;;;;;4958178;28;20226;-75
2022/09/18 03:02:21;;;;;;;0.10;0.10;;;9.70;99.90;;;;;;4951866;28;20261;-74
2022/09/18 03:04:51;;;;;;;0.10;0.10;;;9.70;99.90;;;;;;4935063;29;20596;-75
2022/09/18 03:07:27;;;;;;;0.10;0.10;;;9.70;99.90;;;;;;4953092;29;20209;-75
2022/09/18 03:09:56;;;;;;;0.00;0.00;;;9.60;99.90;;;;;;4937698;29;20194;-74
2022/09/18 03:12:24;;;;;;;0.10;0.10;;;9.60;99.90;;;;;;4939610;29;20609;-74
2022/09/18 03:14:51;;;;;;;0.10;0.10;;;9.60;99.90;;;;;;4923870;29;20260;-75
2022/09/18 03:17:21;;;;;;;0.10;0.10;;;9.50;99.90;;;;;;4951802;28;20569;-74
2022/09/18 03:19:48;;;;;;;0.10;0.10;;;9.50;99.90;;;;;;4936846;29;20640;-74
2022/09/18 03:22:16;;;;;;;0.10;0.10;;;9.50;99.90;;;;;;4950097;28;20244;-74
2022/09/18 03:24:44;;;;;;;0.10;0.10;;;9.50;99.90;;;;;;4952136;29;20212;-74
2022/09/18 03:27:17;;;;;;;0.00;0.00;;;9.40;99.90;;;;;;4936869;29;20202;-74
2022/09/18 03:29:45;;;;;;;0.10;0.10;;;9.40;99.90;;;;;;4952632;29;20202;-75
2022/09/18 03:32:16;;;;;;;0.10;0.10;;;9.40;99.90;;;;;;4940545;28;20685;-75
2022/09/18 03:34:48;;;;;;;0.10;0.10;;;9.30;99.90;;;;;;4933315;29;20743;-75
2022/09/18 03:37:17;;;;;;;0.10;0.10;;;9.30;99.90;;;;;;4943876;28;20221;-74
2022/09/18 03:39:47;;;;;;;0.10;0.10;;;9.30;99.90;;;;;;4943339;28;20232;-74
2022/09/18 03:42:14;;;;;;;0.10;0.10;;;9.20;99.90;;;;;;4939773;28;20214;-74
2022/09/18 03:44:42;;;;;;;0.10;0.10;;;9.30;99.90;;;;;;4918774;29;20625;-74
2022/09/18 03:47:22;;;;;;;0.10;0.10;;;9.30;99.90;;;;;;4922449;29;20198;-75
2022/09/18 03:49:51;;;;;;;0.00;0.00;;;9.20;99.90;;;;;;4939093;29;20683;-75
2022/09/18 03:52:20;;;;;;;0.10;0.10;;;9.20;99.90;;;;;;4947179;28;20206;-75
2022/09/18 03:54:56;;;;;;;0.10;0.10;;;9.20;99.90;;;;;;4952594;29;20276;-74
2022/09/18 03:57:44;;;;;;;0.10;0.10;;;9.20;99.90;;;;;;4952815;29;20578;-73
2022/09/18 04:00:35;;;;;;;0.10;0.10;;;9.10;99.90;;;;;;4941635;29;20226;-74
2022/09/18 04:03:11;;;;;;;0.10;0.10;;;9.10;99.90;;;;;;4952350;29;20212;-74
2022/09/18 04:05:59;;;;;;;0.10;0.10;;;9.00;99.90;;;;;;4953177;29;20589;-74
2022/09/18 04:08:56;;;;;;;0.10;0.10;;;9.00;99.90;;;;;;4953845;28;20530;-74
2022/09/18 04:11:36;;;;;;;0.10;0.10;;;9.00;99.90;;;;;;4946095;28;20202;-74
2022/09/18 04:14:05;;;;;;;0.10;0.10;;;9.00;99.90;;;;;;4951223;29;20206;-74
2022/09/18 04:16:33;;;;;;;0.10;0.10;;;8.90;99.90;;;;;;4936660;29;20230;-74
2022/09/18 04:19:01;;;;;;;0.08;0.08;;;9.00;99.90;;;;;;4919475;29;20206;-73
2022/09/18 04:21:31;;;;;;;0.10;0.10;;;8.90;99.90;;;;;;4950957;29;20250;-73
2022/09/18 04:23:59;;;;;;;0.10;0.10;;;8.90;99.90;;;;;;4934822;29;20216;-74
2022/09/18 04:26:27;;;;;;;0.10;0.10;;;8.90;99.90;;;;;;4939808;29;20234;-74
2022/09/18 04:28:58;;;;;;;0.03;0.03;;;8.90;99.90;;;;;;4947381;29;20240;-74
2022/09/18 04:31:26;;;;;;;0.00;0.00;;;8.90;99.90;;;;;;4949173;29;20194;-75
2022/09/18 04:33:56;;;;;;;0.10;0.10;;;8.90;99.90;;;;;;4952244;29;20212;-74
2022/09/18 04:36:24;;;;;;;0.10;0.10;;;8.90;99.90;;;;;;4948153;29;20226;-74
2022/09/18 04:38:53;;;;;;;0.10;0.10;;;8.90;99.90;;;;;;4933285;29;20214;-74
2022/09/18 04:41:21;;;;;;;0.00;0.00;;;8.90;99.90;;;;;;4944161;29;20225;-74
2022/09/18 04:43:49;;;;;;;0.10;0.10;;;8.90;99.90;;;;;;4919821;29;20217;-74
2022/09/18 04:46:18;;;;;;;0.03;0.03;;;8.90;99.90;;;;;;4931098;29;20236;-74
2022/09/18 04:48:48;;;;;;;0.10;0.10;;;9.00;99.90;;;;;;4952887;29;20225;-75
2022/09/18 04:51:19;;;;;;;0.10;0.10;;;9.00;99.90;;;;;;4938560;28;20686;-76
2022/09/18 04:53:50;;;;;;;0.10;0.10;;;9.00;99.90;;;;;;4956743;29;20215;-76
2022/09/18 04:56:19;;;;;;;0.10;0.10;;;9.00;99.90;;;;;;4944032;29;20254;-75
2022/09/18 04:58:50;;;;;;;0.10;0.10;;;9.10;99.90;;;;;;4936401;29;20205;-75
2022/09/18 05:01:18;;;;;;;0.10;0.10;;;9.10;99.90;;;;;;4948532;29;20226;-75
2022/09/18 05:03:46;;;;;;;0.10;0.10;;;9.10;99.90;;;;;;4938722;29;20286;-75
2022/09/18 05:06:23;;;;;;;0.08;0.08;;;9.10;99.90;;;;;;4950052;28;20276;-76
2022/09/18 05:08:51;;;;;;;0.10;0.10;;;9.10;99.90;;;;;;4952824;29;20237;-75
2022/09/18 05:11:21;;;;;;;0.10;0.10;;;9.10;99.90;;;;;;4953226;28;20198;-75
2022/09/18 05:13:51;;;;;;;0.10;0.10;;;9.00;99.90;;;;;;4954838;29;20240;-75
2022/09/18 05:16:19;;;;;;;0.10;0.10;;;9.10;99.90;;;;;;4942012;28;20225;-76
2022/09/18 05:19:03;;;;;;;0.10;0.10;;;9.10;99.90;;;;;;4938351;29;20203;-77
2022/09/18 05:21:31;;;;;;;0.10;0.10;;;9.10;99.90;;;;;;4933760;29;20261;-76
2022/09/18 05:23:59;;;;;;;0.10;0.10;;;9.10;99.90;;;;;;4951519;29;20202;-77
2022/09/18 05:26:29;;;;;;;0.10;0.10;;;9.20;99.90;;;;;;4949732;29;20230;-75
2022/09/18 05:28:58;;;;;;;0.10;0.10;;;9.20;99.90;;;;;;4962958;28;20209;-75
2022/09/18 05:31:26;;;;;;;0.10;0.10;;;9.10;99.90;;;;;;4948087;29;20187;-75
2022/09/18 05:33:54;;;;;;;0.05;0.05;;;9.10;99.90;;;;;;4920530;29;20214;-75
2022/09/18 05:36:23;;;;;;;0.10;0.10;;;9.10;99.90;;;;;;4937709;29;20234;-75
2022/09/18 05:38:51;;;;;;;0.10;0.10;;;9.10;99.90;;;;;;4951034;29;20241;-75
2022/09/18 05:41:19;;;;;;;0.10;0.10;;;9.20;99.90;;;;;;4941280;29;20229;-76
2022/09/18 05:43:48;;;;;;;0.10;0.10;;;9.10;99.90;;;;;;4971405;28;20252;-76
2022/09/18 05:46:17;;;;;;;0.10;0.10;;;9.10;99.90;;;;;;4949984;29;20258;-76
2022/09/18 05:48:56;;;;;;;0.10;0.10;;;9.10;99.90;;;;;;4962326;28;20211;-75
2022/09/18 05:51:32;;;;;;;0.10;0.10;;;9.10;99.90;;;;;;4950652;28;20202;-76
2022/09/18 05:54:05;;;;;;;0.10;0.10;;;9.20;99.90;;;;;;4941126;29;20217;-76
2022/09/18 05:56:39;;;;;;;0.10;0.10;;;9.20;99.90;;;;;;4946077;28;20325;-75
2022/09/18 05:59:09;;;;;;;0.10;0.10;;;9.20;99.90;;;;;;4936870;29;20194;-76
2022/09/18 06:01:37;;;;;;;0.10;0.10;;;9.20;99.90;;;;;;4944551;29;20230;-76
2022/09/18 06:04:20;;;;;;;0.08;0.08;;;9.20;99.90;;;;;;4949233;29;20220;-77
2022/09/18 06:06:55;;;;;;;0.10;0.10;;;9.20;99.90;;;;;;4950819;29;20226;-78
2022/09/18 06:09:23;;;;;;;0.10;0.10;;;9.20;99.90;;;;;;4952186;29;20213;-78
2022/09/18 06:11:51;;;;;;;0.10;0.10;;;9.30;99.90;;;;;;4943665;28;20692;-75
2022/09/18 06:14:20;;;;;;;0.10;0.10;;;9.20;99.90;;;;;;4951183;29;20397;-76
2022/09/18 06:16:48;;;;;;;0.10;0.10;;;9.30;99.90;;;;;;4921356;29;20226;-75
2022/09/18 06:19:16;;;;;;;0.10;0.10;;;9.30;99.90;;;;;;4934895;29;20576;-76
2022/09/18 06:21:47;;;;;;;0.10;0.10;;;9.30;99.90;;;;;;4936908;29;20218;-75
2022/09/18 06:24:17;;;;;;;0.10;0.10;;;9.30;99.90;;;;;;4954271;29;20197;-75
2022/09/18 06:26:52;;;;;;;0.00;0.00;;;9.30;99.90;;;;;;4945212;28;20712;-74
2022/09/18 06:29:23;;;;;;;0.10;0.10;;;9.30;99.90;;;;;;4938149;29;20667;-74
2022/09/18 06:32:00;;;;;;;0.00;0.00;;;9.30;99.90;;;;;;4941738;29;20631;-75
2022/09/18 06:34:28;;;;;;;0.10;0.10;;;9.30;99.90;;;;;;4935711;29;20202;-75
2022/09/18 06:37:02;;;;;;;0.10;0.10;;;9.40;99.90;;;;;;4946874;28;20230;-75
2022/09/18 06:39:49;;;;;;;0.10;0.10;;;9.40;99.90;;;;;;4938877;29;20212;-76
2022/09/18 06:42:33;;;;;;;0.10;0.10;;;9.50;99.90;;;;;;4933877;29;20259;-75
2022/09/18 06:45:14;;;;;;;0.10;0.10;;;9.60;99.90;;;;;;4946885;29;20611;-76
2022/09/18 06:47:46;;;;;;;0.10;0.10;;;9.70;99.90;;;;;;4953249;28;20296;-75
2022/09/18 06:50:14;;;;;;;0.10;0.10;;;9.70;99.90;;;;;;4947952;29;20258;-75
2022/09/18 06:52:46;;;;;;;0.10;0.10;;;9.80;99.90;;;;;;4950982;28;20678;-75
2022/09/18 06:55:15;;;;;;;0.10;0.10;;;9.90;99.90;;;;;;4953684;29;20249;-75
2022/09/18 06:57:53;;;;;;;0.10;0.10;;;10.00;99.90;;;;;;4933827;29;20211;-76
2022/09/18 07:00:23;;;;;;;0.10;0.10;;;10.10;99.90;;;;;;4953621;29;20244;-75
2022/09/18 07:02:56;;;;;;;0.10;0.10;;;10.20;99.90;;;;;;4946297;29;20221;-76
2022/09/18 07:05:44;;;;;;;0.10;0.10;;;10.20;99.90;;;;;;4949155;29;20217;-76
2022/09/18 07:08:24;;;;;;;0.10;0.10;;;10.30;99.90;;;;;;4942910;29;20236;-76
2022/09/18 07:11:00;;;;;;;0.00;0.00;;;10.40;99.90;;;;;;4956371;28;20205;-75
2022/09/18 07:13:30;;;;;;;0.10;0.10;;;10.40;99.90;;;;;;4945387;29;20214;-75
2022/09/18 07:16:03;;;;;;;0.10;0.10;;;10.50;99.90;;;;;;4925640;29;20248;-75
2022/09/18 07:18:31;;;;;;;0.10;0.10;;;10.50;99.90;;;;;;4944882;29;20217;-75
2022/09/18 07:20:59;;;;;;;0.10;0.10;;;10.60;99.90;;;;;;4949717;28;20305;-76
2022/09/18 07:23:33;;;;;;;0.10;0.10;;;10.70;99.90;;;;;;4960542;28;20240;-75
2022/09/18 07:26:04;;;;;;;0.10;0.10;;;10.60;99.90;;;;;;4949519;29;20527;-76
2022/09/18 07:28:33;;;;;;;0.10;0.10;;;10.70;99.90;;;;;;4918656;29;20209;-74
2022/09/18 07:31:12;;;;;;;0.10;0.10;;;10.70;99.90;;;;;;4953971;28;20214;-74
2022/09/18 07:33:42;;;;;;;0.10;0.10;;;10.80;99.90;;;;;;4957048;28;20197;-74
2022/09/18 07:36:16;;;;;;;0.00;0.00;;;10.90;99.90;;;;;;4991559;23;20271;-75
2022/09/18 07:38:43;;;;;;;0.10;0.10;;;10.90;99.90;;;;;;4966449;28;20200;-75
2022/09/18 07:41:11;;;;;;;0.00;0.00;;;10.80;99.90;;;;;;4949690;28;20206;-75
2022/09/18 07:43:43;;;;;;;0.10;0.10;;;10.80;99.90;;;;;;4972486;28;20214;-75
2022/09/18 07:46:13;;;;;;;0.10;0.10;;;10.80;99.90;;;;;;4983504;28;20230;-76
2022/09/18 07:48:41;;;;;;;0.10;0.10;;;10.80;99.90;;;;;;4955797;28;20209;-76
2022/09/18 07:51:16;;;;;;;0.10;0.10;;;10.90;99.90;;;;;;4972567;28;20205;-76
2022/09/18 07:53:48;;;;;;;0.10;0.10;;;10.90;99.90;;;;;;4988195;28;20581;-76
2022/09/18 07:56:24;;;;;;;0.10;0.10;;;11.00;99.90;;;;;;4961433;28;20225;-76
2022/09/18 07:58:52;;;;;;;0.00;0.00;;;11.10;99.90;;;;;;4979343;28;20705;-77
2022/09/18 08:01:34;;;;;;;0.08;0.08;;;11.10;99.90;;;;;;4944923;28;20303;-76
2022/09/18 08:04:05;;;;;;;0.10;0.10;;;11.20;99.90;;;;;;4953467;29;20218;-77
2022/09/18 08:06:35;;;;;;;0.10;0.10;;;11.30;99.90;;;;;;4955792;28;20265;-77
2022/09/18 08:09:12;;;;;;;0.05;0.05;;;11.30;99.90;;;;;;4945986;28;20562;-76
2022/09/18 08:12:15;;;;;;;0.10;0.10;;;11.30;99.90;;;;;;4950477;28;20197;-77
2022/09/18 08:15:10;;;;;;;0.10;0.10;;;11.30;99.90;;;;;;4940696;29;20206;-76
2022/09/18 08:17:51;;;;;;;0.03;0.03;;;11.40;99.90;;;;;;4962464;28;20204;-76
2022/09/18 08:20:29;;;;;;;0.10;0.10;;;11.40;99.90;;;;;;4966898;28;20202;-76
2022/09/18 08:23:08;;;;;;;0.10;0.10;;;11.50;99.90;;;;;;4961822;28;20232;-76
2022/09/18 08:25:40;;;;;;;0.00;0.00;;;11.40;99.90;;;;;;4953833;28;20248;-76
2022/09/18 08:28:09;;;;;;;0.10;0.10;;;11.40;99.90;;;;;;4969899;28;20205;-76
2022/09/18 08:30:53;;;;;;;0.10;0.10;;;11.50;99.90;;;;;;4979685;28;20760;-76
2022/09/18 08:33:23;;;;;;;0.10;0.10;;;11.40;99.90;;;;;;4953959;28;20197;-76
2022/09/18 08:35:51;;;;;;;0.00;0.00;;;11.50;99.90;;;;;;4959134;28;20229;-76
2022/09/18 08:38:39;;;;;;;0.10;0.10;;;11.40;99.90;;;;;;4983569;28;20280;-77
2022/09/18 08:41:26;;;;;;;0.10;0.10;;;11.40;99.90;;;;;;4986988;28;20206;-76
2022/09/18 08:44:02;;;;;;;0.10;0.10;;;11.40;99.90;;;;;;4988958;28;20201;-76
2022/09/18 08:46:35;;;;;;;0.00;0.00;;;11.40;99.90;;;;;;4981774;28;20220;-77
2022/09/18 08:49:22;;;;;;;0.10;0.10;;;11.40;99.90;;;;;;4956026;28;20200;-77
2022/09/18 08:51:57;;;;;;;0.00;0.00;;;11.50;99.90;;;;;;4979457;28;20738;-76
2022/09/18 08:54:39;;;;;;;0.10;0.10;;;11.50;99.90;;;;;;4971795;28;20252;-76
2022/09/18 08:57:27;;;;;;;0.00;0.00;;;11.50;99.90;;;;;;4958965;28;20207;-76
2022/09/18 09:00:06;;;;;;;0.10;0.10;;;11.50;99.90;;;;;;4937138;28;20209;-75
2022/09/18 09:02:39;;;;;;;0.00;0.00;;;11.50;99.90;;;;;;4952982;28;20241;-76
2022/09/18 09:05:12;;;;;;;0.00;0.00;;;11.50;99.90;;;;;;4971295;28;20579;-76
2022/09/18 09:08:18;;;;;;;0.10;0.10;;;11.60;99.90;;;;;;4953150;28;20618;-76
2022/09/18 09:10:55;;;;;;;0.00;0.00;;;11.60;99.90;;;;;;4968606;28;20737;-76
2022/09/18 09:13:53;;;;;;;0.00;0.00;;;11.60;99.90;;;;;;4940646;28;20193;-76
2022/09/18 09:16:31;;;;;;;0.00;0.00;;;11.70;99.90;;;;;;4968002;28;20218;-76
2022/09/18 09:19:01;;;;;;;0.10;0.10;;;11.70;99.90;;;;;;4952668;29;20212;-75
2022/09/18 09:21:49;;;;;;;0.10;0.10;;;11.60;99.90;;;;;;4951777;28;20261;-76
2022/09/18 09:24:30;;;;;;;0.10;0.10;;;11.60;99.90;;;;;;4968403;28;20229;-75
2022/09/18 09:27:15;;;;;;;0.10;0.10;;;11.70;99.90;;;;;;4960284;28;20239;-75
2022/09/18 09:30:06;;;;;;;0.10;0.10;;;11.70;99.90;;;;;;4965498;28;20213;-76
2022/09/18 09:33:02;;;;;;;0.10;0.10;;;11.60;99.90;;;;;;4966468;28;20549;-78
2022/09/18 09:35:45;;;;;;;0.10;0.10;;;11.60;99.90;;;;;;4958829;28;20268;-76
2022/09/18 09:38:34;;;;;;;0.10;0.10;;;11.60;99.90;;;;;;4971909;28;20204;-75
2022/09/18 09:41:12;;;;;;;0.10;0.10;;;11.70;99.90;;;;;;4991504;28;20256;-75
2022/09/18 09:43:46;;;;;;;0.10;0.10;;;11.70;99.90;;;;;;4958794;28;20229;-75
2022/09/18 09:46:23;;;;;;;0.10;0.10;;;11.70;99.90;;;;;;4948079;28;20239;-75
2022/09/18 09:48:56;;;;;;;0.10;0.10;;;11.70;99.90;;;;;;4963189;28;20236;-76
2022/09/18 09:51:31;;;;;;;0.00;0.00;;;11.70;99.90;;;;;;4973337;28;20596;-76
2022/09/18 09:54:01;;;;;;;0.10;0.10;;;11.70;99.90;;;;;;4974658;28;20209;-77
2022/09/18 09:56:37;;;;;;;0.10;0.10;;;11.70;99.90;;;;;;4972789;28;20232;-76
2022/09/18 09:59:16;;;;;;;0.10;0.10;;;11.70;99.90;;;;;;4954867;28;20237;-76
2022/09/18 10:02:32;;;;;;;0.10;0.10;;;11.70;99.90;;;;;;4979799;28;20665;-75
2022/09/18 10:05:13;;;;;;;0.00;0.00;;;11.80;99.90;;;;;;4967429;28;20209;-75
2022/09/18 10:07:46;;;;;;;0.10;0.10;;;11.80;99.90;;;;;;4939827;29;20213;-76
2022/09/18 10:10:26;;;;;;;0.00;0.00;;;11.80;99.90;;;;;;4945043;28;20205;-77
2022/09/18 10:12:57;;;;;;;0.05;0.05;;;11.80;99.90;;;;;;4939401;28;20823;-76
2022/09/18 10:15:33;;;;;;;0.10;0.10;;;11.80;99.90;;;;;;4953982;28;20309;-76
2022/09/18 10:18:07;;;;;;;0.03;0.03;;;11.70;99.90;;;;;;4962707;28;20236;-76
2022/09/18 10:20:36;;;;;;;0.10;0.10;;;11.80;99.90;;;;;;4990781;28;20232;-76
2022/09/18 10:23:09;;;;;;;0.10;0.10;;;11.80;99.90;;;;;;4973190;28;20233;-76
2022/09/18 10:25:46;;;;;;;0.10;0.10;;;11.80;99.90;;;;;;4965034;28;20221;-76
2022/09/18 10:28:16;;;;;;;0.10;0.10;;;11.80;99.90;;;;;;4963146;28;20228;-75
2022/09/18 10:30:56;;;;;;;0.10;0.10;;;11.80;99.90;;;;;;4960416;28;20299;-76
2022/09/18 10:33:33;;;;;;;0.10;0.10;;;11.80;99.90;;;;;;4957896;28;20204;-76
2022/09/18 10:36:11;;;;;;;0.00;0.00;;;11.70;99.90;;;;;;4971074;28;20674;-76
2022/09/18 10:38:39;;;;;;;0.10;0.10;;;11.80;99.90;;;;;;4948369;28;20207;-76
2022/09/18 10:41:34;;;;;;;0.10;0.10;;;11.70;99.90;;;;;;4973957;28;20215;-76
2022/09/18 10:44:19;;;;;;;0.10;0.10;;;11.70;99.90;;;;;;4973541;28;20593;-76
2022/09/18 10:46:54;;;;;;;0.08;0.08;;;11.60;99.90;;;;;;4963224;28;20229;-76
2022/09/18 10:49:25;;;;;;;0.00;0.00;;;11.60;99.90;;;;;;4939259;28;20603;-76
2022/09/18 10:52:27;;;;;;;0.10;0.10;;;11.60;99.90;;;;;;4957125;28;20206;-76
2022/09/18 10:55:01;;;;;;;0.10;0.10;;;11.60;99.90;;;;;;4953871;28;20296;-77
2022/09/18 10:57:33;;;;;;;0.03;0.03;;;11.70;99.90;;;;;;4966547;28;20324;-75
2022/09/18 11:00:47;;;;;;;0.05;0.05;;;11.70;99.90;;;;;;4960752;28;20268;-76
2022/09/18 11:03:21;;;;;;;0.00;0.00;;;11.70;99.90;;;;;;4977080;28;20271;-76
2022/09/18 11:05:55;;;;;;;0.00;0.00;;;11.60;99.90;;;;;;4960242;28;20224;-76
2022/09/18 11:08:26;;;;;;;0.00;0.00;;;11.70;99.90;;;;;;4944809;28;20206;-76
2022/09/18 11:11:02;;;;;;;0.00;0.00;;;11.80;99.90;;;;;;4989125;28;20747;-76
2022/09/18 11:13:42;;;;;;;0.10;0.10;;;11.80;99.90;;;;;;4973047;28;20220;-76
2022/09/18 11:16:21;;;;;;;0.10;0.10;;;11.70;99.90;;;;;;4953434;28;20232;-76
2022/09/18 11:19:02;;;;;;;0.00;0.00;;;11.80;99.90;;;;;;4958235;28;20213;-76
2022/09/18 11:21:44;;;;;;;0.10;0.10;;;11.90;99.90;;;;;;4977941;28;20201;-76
2022/09/18 11:24:21;;;;;;;0.10;0.10;;;12.00;99.90;;;;;;4945537;29;20225;-76
2022/09/18 11:26:50;;;;;;;0.00;0.00;;;12.20;99.90;;;;;;4979688;28;20641;-75
2022/09/18 11:29:24;;;;;;;0.10;0.10;;;12.20;99.90;;;;;;4956140;28;20738;-76
2022/09/18 11:31:56;;;;;;;0.10;0.10;;;12.20;99.90;;;;;;4962234;28;20211;-76
2022/09/18 11:34:30;;;;;;;0.10;0.10;;;12.20;99.90;;;;;;4956118;28;20312;-76
2022/09/18 11:37:02;;;;;;;0.10;0.10;;;12.20;99.90;;;;;;4959875;28;20728;-75
2022/09/18 11:39:37;;;;;;;0.00;0.00;;;12.20;99.90;;;;;;4971676;28;20251;-76
2022/09/18 11:42:12;;;;;;;0.03;0.03;;;12.20;99.90;;;;;;4943459;29;20209;-76
2022/09/18 11:44:42;;;;;;;0.10;0.10;;;12.20;99.90;;;;;;4957455;28;20251;-76
2022/09/18 11:47:27;;;;;;;0.10;0.10;;;12.10;99.90;;;;;;4970156;28;20287;-76
2022/09/18 11:50:10;;;;;;;0.10;0.10;;;12.00;99.90;;;;;;4956524;28;20193;-76
2022/09/18 11:52:42;;;;;;;0.10;0.10;;;12.00;99.90;;;;;;4956816;28;20205;-76
2022/09/18 11:55:24;;;;;;;0.10;0.10;;;11.90;99.90;;;;;;4970107;28;20623;-76
2022/09/18 11:57:55;;;;;;;0.00;0.00;;;11.90;99.90;;;;;;4959282;29;20197;-75
2022/09/18 12:00:29;;;;;;;0.10;0.10;;;12.00;99.90;;;;;;4978816;28;20283;-76
2022/09/18 12:03:07;;;;;;;0.10;0.10;;;12.00;99.90;;;;;;4967286;28;20216;-76
2022/09/18 12:05:51;;;;;;;0.10;0.10;;;12.00;99.90;;;;;;4956286;28;20263;-76
2022/09/18 12:08:28;;;;;;;0.10;0.10;;;12.00;99.90;;;;;;4936533;29;20209;-76
2022/09/18 12:11:12;;;;;;;0.10;0.10;;;12.00;99.90;;;;;;4972581;28;20205;-76
2022/09/18 12:13:48;;;;;;;0.10;0.10;;;12.10;99.90;;;;;;4970208;28;20201;-76
2022/09/18 12:16:23;;;;;;;0.10;0.10;;;12.20;99.90;;;;;;4969486;28;20223;-76
2022/09/18 12:18:59;;;;;;;0.10;0.10;;;12.30;99.90;;;;;;4952103;29;20201;-76
2022/09/18 12:21:38;;;;;;;0.10;0.10;;;12.30;99.90;;;;;;4967104;28;20202;-76
2022/09/18 12:24:13;;;;;;;0.10;0.10;;;12.40;99.90;;;;;;4953621;29;20224;-76
2022/09/18 12:26:54;;;;;;;0.10;0.10;;;12.50;99.90;;;;;;4966272;28;20610;-76
2022/09/18 12:29:35;;;;;;;0.10;0.10;;;12.50;99.90;;;;;;4961960;28;20208;-76
2022/09/18 12:32:20;;;;;;;0.10;0.10;;;12.60;99.90;;;;;;4962041;28;20581;-76
2022/09/18 12:34:57;;;;;;;0.10;0.10;;;12.60;99.90;;;;;;4970599;28;20215;-76
2022/09/18 12:37:38;;;;;;;0.10;0.10;;;12.50;99.90;;;;;;4971914;28;20278;-76
2022/09/18 12:40:23;;;;;;;0.10;0.10;;;12.40;99.90;;;;;;4971517;28;20205;-76
2022/09/18 12:43:05;;;;;;;0.00;0.00;;;12.30;99.90;;;;;;4956659;28;20241;-76
2022/09/18 12:45:59;;;;;;;0.10;0.10;;;12.10;99.90;;;;;;4955526;28;20228;-76
2022/09/18 12:48:47;;;;;;;0.10;0.10;;;11.90;99.90;;;;;;4953612;28;20206;-76
2022/09/18 12:51:34;;;;;;;0.10;0.10;;;11.90;99.90;;;;;;4971154;28;20246;-76
2022/09/18 12:54:19;;;;;;;0.10;0.10;;;11.90;99.90;;;;;;4975976;28;20204;-76
2022/09/18 12:57:00;;;;;;;0.10;0.10;;;11.90;99.90;;;;;;4964691;28;20284;-76
2022/09/18 12:59:47;;;;;;;0.10;0.10;;;11.80;99.90;;;;;;4960091;28;20236;-76
2022/09/18 13:02:27;;;;;;;0.03;0.03;;;11.70;99.90;;;;;;4957608;28;20613;-76
2022/09/18 13:05:02;;;;;;;0.00;0.00;;;11.70;99.90;;;;;;4953502;29;20271;-75
2022/09/18 13:07:35;;;;;;;0.10;0.10;;;11.70;99.90;;;;;;4955869;28;20665;-76
2022/09/18 13:10:10;;;;;;;0.10;0.10;;;11.70;99.90;;;;;;4963959;28;20209;-76
2022/09/18 13:12:42;;;;;;;0.10;0.10;;;11.60;99.90;;;;;;4967874;28;20205;-76
2022/09/18 13:15:17;;;;;;;0.08;0.08;;;11.60;99.90;;;;;;4963500;28;20201;-77
2022/09/18 13:17:48;;;;;;;0.10;0.10;;;11.60;99.90;;;;;;4962457;28;20260;-75
2022/09/18 13:20:23;;;;;;;0.00;0.00;;;11.60;99.90;;;;;;4962962;28;20214;-75
2022/09/18 13:22:53;;;;;;;0.00;0.00;;;11.60;99.90;;;;;;4974615;28;20583;-75
2022/09/18 13:25:27;;;;;;;0.00;0.00;;;11.60;99.90;;;;;;4962455;28;20276;-76
2022/09/18 13:28:08;;;;;;;0.00;0.00;;;11.60;99.90;;;;;;4965527;28;20272;-77
2022/09/18 13:31:18;;;;;;;0.10;0.10;;;11.60;99.90;;;;;;4973031;28;20293;-77
2022/09/18 13:33:54;;;;;;;0.00;0.00;;;11.60;99.90;;;;;;4958452;29;20625;-77